Tiempo atmosférico en la estación meteorológica de Cañaveral, Cáceres (373 m.)



Fecha
DESCASC
Temp. máxima en grados centígrados (hora)
DESCASC
Temp. mínima en grados centígrados (hora)
DESCASC
Temp. media en grados centígrados
DESCASC
Racha de viento máxima en m/sg (hora)
DESCASC
Velocidad máxima media en intervalos de 10 minutos(hora)
DESCASC
Precipitaciones diarias en mm
DESCASC
Precipitaciones de 00:00 a 06:00 en mm
DESCASC
Precipitaciones de 06:00 a 12:00 en mm
DESCASC
Precipitaciones de 12:00 a 18:00 en mm
DESCASC
Precipitaciones de 18:00 a 24:00 en mm
DESCASC
16-06-2019 32.5 (16:50) 13.2 (07:30) 22.8 10.28 (18:30) 6.94 (18:20) 0 0 0 0 0
15-06-2019 27.3 (17:10) 10.1 (06:20) 18.7 8.61 (15:50) 5.56 (02:00) 0 0 0 0 0
14-06-2019 24.2 (17:10) 8.9 (06:30) 16.6 13.06 (16:30) 8.33 (17:40) 0 0 0 0 0
13-06-2019 27.8 (19:00) 8.3 (00:00) 18 11.11 (23:10) 7.5 (23:10) 0 0 0 0 0
12-06-2019 27.9 (17:30) 12.8 (00:00) 20.3 12.22 (06:10) 8.33 (23:10) 0 0 0 0 0
11-06-2019 23.9 (17:30) 14.2 (00:00) 19 14.44 (06:50) 10.28 (07:00) 0 0 0 0 0
10-06-2019 27.7 (17:40) 13.6 (00:00) 20.7 13.33 (23:50) 9.17 (23:40) 0 0 0 0 0
09-06-2019 28.1 (16:30) 9.6 (00:00) 18.9 12.22 (00:20) 8.61 (00:20) 0 0 0 0 0
08-06-2019 29.2 (17:30) 13 (00:00) 21.1 12.22 (03:50) 8.89 (03:20) 0 0 0 0 0
07-06-2019 22.4 (18:40) 8.8 (00:00) 15.6 13.89 (15:50) 6.11 (01:30) 0 0 0 0 0
06-06-2019 24.1 (17:50) 8.6 (00:00) 16.4 15.83 (23:10) 10 (20:40) 0.4 0 0 0 0.4
05-06-2019 22.8 (17:30) 11.7 (00:00) 17.2 13.61 (08:10) 8.06 (01:50) 0 0 0 0 0
04-06-2019 26.3 (15:10) 14 (00:00) 20.1 14.17 (17:40) 9.17 (17:50) 0 0 0 0 0
03-06-2019 34.4 (16:40) 18.7 (00:00) 26.6 12.78 (18:30) 9.17 (18:30) 0 0 0 0 0
02-06-2019 36.6 (18:10) 21.9 (00:00) 29.2 12.22 (20:00) 8.33 (04:50) 0 0 0 0 0
01-06-2019 35.4 (17:20) 21.2 (00:00) 28.3 6.94 (23:59) 4.17 (09:40) 0 0 0 0 0
31-05-2019 34.6 (18:30) 18.6 (00:00) 26.6 10 (17:10) 6.94 (06:50) 0 0 0 0 0
30-05-2019 32.1 (18:10) 18.9 (00:00) 25.5 14.44 (10:40) 10 (10:40) 0 0 0 0 0
29-05-2019 30.2 (18:20) 16.7 (00:00) 23.5 12.22 (09:40) 8.33 (09:50) 0 0 0 0 0
28-05-2019 29.3 (18:00) 17 (00:00) 23.1 13.33 (03:50) 9.44 (03:40) 0 0 0 0 0
27-05-2019 31.6 (17:00) 20.3 (00:00) 25.9 11.11 (16:00) 7.22 (16:40) 0 0 0 0 0
26-05-2019 30.2 (17:40) 16.1 (00:00) 23.2 12.5 (18:20) 7.78 (06:20) 0 0 0 0 0
25-05-2019 27 (17:50) 13.4 (00:00) 20.2 12.5 (22:30) 7.22 (05:50) 0 0 0 0 0
24-05-2019 27 (17:40) 14.8 (00:00) 20.9 16.39 (13:20) 11.39 (03:50) 0 0 0 0 0
23-05-2019 30.4 (17:30) 14.4 (00:00) 22.4 12.22 (23:59) 9.17 (23:59) 0 0 0 0 0
22-05-2019 30.8 (17:30) 13.6 (00:00) 22.2 10 (23:59) 6.94 (23:59) 0 0 0 0 0
21-05-2019 26.4 (19:10) 11.6 (07:20) 19 10.83 (01:50) 7.5 (01:40) 0 0 0 0 0

Gráficas

Temp. máximas Temp. mínimas Temp. medias Precipitaciones Rachas de viento máximas Velocidades máximas media en intervalos de 10 minutos

Datos horarios

Fecha y hora oficial Temperatura (ºC) Velocidad del viento (km/h) Dirección del viento Racha (km/h) Dirección de racha Precipitación (mm) Presión (hPa) Tendencia (hPa) Humedad (%)
2019-06-19 23:00:00 21.7 11 Noroeste 17 Oeste 0 -- -- 53
2019-06-19 22:00:00 22.6 9 Oeste 22 Oeste 0 -- -- 47
2019-06-19 21:00:00 25.2 14 Oeste 22 Sudoeste 0 -- -- 43
2019-06-19 20:00:00 25.3 16 Sudoeste 26 Sudoeste 0 -- -- 44
2019-06-19 19:00:00 26.5 13 Sudoeste 25 Oeste 0 -- -- 41
2019-06-19 18:00:00 26.6 13 Sudoeste 24 Oeste 0 -- -- 41
2019-06-19 17:00:00 24.8 16 Sudoeste 24 Sudoeste 0 -- -- 46
2019-06-19 16:00:00 26.3 13 Sudoeste 28 Sudoeste 0 -- -- 41
2019-06-19 15:00:00 24.6 14 Sudoeste -- -- -- -- -- 45
2019-06-19 14:00:00 -- -- -- -- -- -- -- -- --
2019-06-19 13:00:00 -- -- -- -- -- -- -- -- --
2019-06-19 12:00:00 -- -- -- -- -- -- -- -- --
2019-06-19 11:00:00 -- -- -- -- -- -- -- -- --
2019-06-19 10:00:00 -- -- -- -- -- -- -- -- --
2019-06-19 09:00:00 -- -- -- -- -- -- -- -- --
2019-06-19 08:00:00 -- -- -- -- -- -- -- -- --
2019-06-19 07:00:00 -- -- -- -- -- -- -- -- --
2019-06-19 06:00:00 -- -- -- -- -- -- -- -- --
2019-06-19 05:00:00 -- -- -- -- -- -- -- -- --
2019-06-19 04:00:00 -- -- -- -- -- -- -- -- --
2019-06-19 03:00:00 -- -- -- -- -- -- -- -- --
2019-06-19 02:00:00 -- -- -- -- -- -- -- -- --
2019-06-19 01:00:00 -- -- -- -- -- -- -- -- --
2019-06-19 00:00:00 -- -- -- -- -- -- -- -- --
2019-06-18 23:00:00 -- -- -- -- -- -- -- -- --
2019-06-18 22:00:00 -- -- -- -- -- -- -- -- --
2019-06-18 21:00:00 -- -- -- -- -- -- -- -- --
2019-06-18 20:00:00 -- -- -- -- -- -- -- -- --
2019-06-18 19:00:00 27 21 Sudoeste 39 Sudoeste 0 -- -- 41
2019-06-18 18:00:00 26.5 15 Oeste 39 Oeste 0 -- -- 42
2019-06-18 17:00:00 28 25 Sudoeste 42 Sudoeste 0 -- -- 39
2019-06-18 16:00:00 25.9 30 Sudoeste 44 Oeste 0 -- -- 43
2019-06-18 15:00:00 25.3 23 Sudoeste 45 Sudoeste 0 -- -- 46
2019-06-18 14:00:00 25.1 21 Sudoeste 42 Sudoeste 0 -- -- 47
2019-06-18 13:00:00 24.3 17 Sudoeste 34 Sur 0 -- -- 43
2019-06-18 12:00:00 23.2 18 Sur 33 Sur 0 -- -- 38
2019-06-18 11:00:00 22.5 16 Sur 28 Sur 0 -- -- 33
2019-06-18 10:00:00 20.3 12 Sur 21 Sur 0 -- -- 33
2019-06-18 09:00:00 18.7 3 Sur 11 Sur 0 -- -- 42
2019-06-18 08:00:00 15.8 4 Este 6 Nordeste 0 -- -- 51
2019-06-18 07:00:00 14 4 Nordeste 7 Este 0 -- -- 56
2019-06-18 06:00:00 14.7 5 Este 12 Sudoeste 0 -- -- 56
2019-06-18 05:00:00 16.3 8 Sudoeste 13 Sudoeste 0 -- -- 52
2019-06-18 04:00:00 17 10 Oeste 22 Oeste 0 -- -- 52
2019-06-18 03:00:00 18.3 15 Oeste 22 Oeste 0 -- -- 50
2019-06-18 02:00:00 19.9 16 Oeste 24 Oeste 0 -- -- 47
2019-06-18 01:00:00 21.4 14 Sudoeste 22 Sudoeste 0 -- -- 41
2019-06-18 00:00:00 23.2 5 Sudoeste 19 Sudoeste 0 -- -- 25
2019-06-17 23:00:00 25.1 6 Sudoeste 15 Sudoeste 0 -- -- 20
2019-06-17 22:00:00 26.3 9 Sudoeste 25 Sudoeste 0 -- -- 18
2019-06-17 21:00:00 28.1 18 Sudoeste 24 Sudoeste 0 -- -- 17
2019-06-17 20:00:00 29.4 15 Sudoeste 32 Oeste 0 -- -- 18
2019-06-17 19:00:00 31.1 20 Sudoeste 35 Oeste 0 -- -- 17
2019-06-17 18:00:00 32.2 21 Sudoeste 35 Sudoeste 0 -- -- 14
2019-06-17 17:00:00 32.7 21 Sudoeste 38 Sudoeste 0 -- -- 12
2019-06-17 16:00:00 32 22 Sur 38 Sur 0 -- -- 13
2019-06-17 15:00:00 31.1 17 Sur 36 Sur 0 -- -- 16
2019-06-17 14:00:00 29.7 13 Sur 35 Sudeste 0 -- -- 22
2019-06-17 13:00:00 28.1 10 Sur 28 Sudeste 0 -- -- 28
2019-06-17 12:00:00 26.2 12 Sur 25 Sur 0 -- -- 33
2019-06-17 11:00:00 24.2 9 Sur 19 Sur 0 -- -- 37
2019-06-17 10:00:00 22.2 5 Sur 10 Sur 0 -- -- 43
2019-06-17 09:00:00 19.7 3 Este 6 Este 0 -- -- 54
2019-06-17 08:00:00 16.5 4 Nordeste 7 Nordeste 0 -- -- 64
2019-06-17 07:00:00 14.4 3 Nordeste 7 Sur 0 -- -- 72
2019-06-17 06:00:00 14.9 4 Sur 6 Sudoeste 0 -- -- 68
2019-06-17 05:00:00 16.1 0 Calma 6 Sudoeste 0 -- -- 64
2019-06-17 04:00:00 17.2 3 Sudeste 13 Sudoeste 0 -- -- 58
2019-06-17 03:00:00 18.5 6 Sudeste 15 Oeste 0 -- -- 55
2019-06-17 02:00:00 19.2 6 Sudoeste 20 Oeste 0 -- -- 48
2019-06-17 01:00:00 21.7 18 Oeste 32 Oeste 0 -- -- 37
2019-06-17 00:00:00 23 17 Oeste 26 Oeste 0 -- -- 33
2019-06-16 23:00:00 23.9 16 Oeste 29 Oeste 0 -- -- 32
2019-06-16 22:00:00 24.9 8 Oeste 21 Sur 0 -- -- 27
2019-06-16 21:00:00 28.7 12 Sur 27 Sur 0 -- -- 18
2019-06-16 20:00:00 30 16 Sur 32 Sur 0 -- -- 18
2019-06-16 19:00:00 30.7 21 Sudoeste 37 Sur 0 -- -- 20
2019-06-16 18:00:00 32.2 15 Sudoeste 36 Sur 0 -- -- 18
2019-06-16 17:00:00 32.2 13 Sudoeste 30 Sur 0 -- -- 17
2019-06-16 16:00:00 31.6 12 Sudoeste 32 Sur 0 -- -- 19
2019-06-16 15:00:00 30 8 Este 29 Sudoeste 0 -- -- 20
2019-06-16 14:00:00 29.2 9 Sudeste 22 Sur 0 -- -- 22
2019-06-16 13:00:00 27.5 6 Sur 17 Sudeste 0 -- -- 23
2019-06-16 12:00:00 26 5 Este 14 Sudeste 0 -- -- 25
2019-06-16 11:00:00 23.7 5 Este 15 Este 0 -- -- 29
2019-06-16 10:00:00 21 6 Este 11 Este 0 -- -- 36
2019-06-16 09:00:00 18.8 3 Sudeste 5 Este 0 -- -- 46
2019-06-16 08:00:00 15.1 2 Norte 9 Nordeste 0 -- -- 47
2019-06-16 07:00:00 13.8 7 Nordeste 10 Este 0 -- -- 51
2019-06-16 06:00:00 13.8 3 Nordeste 9 Este 0 -- -- 50
2019-06-16 05:00:00 14.4 3 Noroeste 7 Este 0 -- -- 57
2019-06-16 04:00:00 14.7 4 Sudeste 6 Sur 0 -- -- 52
2019-06-16 03:00:00 15.4 2 Nordeste 6 Oeste 0 -- -- 44
2019-06-16 02:00:00 16.3 5 Sudeste 18 Sudoeste 0 -- -- 38
2019-06-16 01:00:00 19.9 2 Nordeste 4 Norte 0 -- -- 31
2019-06-16 00:00:00 20.7 3 Nordeste 4 Nordeste 0 -- -- 29
2019-06-15 23:00:00 19.7 0 Calma 4 Noroeste 0 -- -- 31
2019-06-15 22:00:00 21.8 2 Noroeste 9 Oeste 0 -- -- 28
2019-06-15 21:00:00 26 3 Este 15 Sudoeste 0 -- -- 22
2019-06-15 20:00:00 26.1 5 Norte 20 Oeste 0 -- -- 23
2019-06-15 19:00:00 25.9 8 Norte 17 Norte 0 -- -- 23
2019-06-15 18:00:00 26 9 Norte 26 Oeste 0 -- -- 22
2019-06-15 17:00:00 26.7 14 Sudoeste 26 Sudoeste 0 -- -- 24
2019-06-15 16:00:00 25.1 15 Oeste 31 Oeste 0 -- -- 26
2019-06-15 15:00:00 24.7 9 Oeste 27 Oeste 0 -- -- 27
2019-06-15 14:00:00 22.7 10 Norte 26 Norte 0 -- -- 31
2019-06-15 13:00:00 21.1 9 Nordeste 24 Noroeste 0 -- -- 32
2019-06-15 12:00:00 19.6 8 Norte 21 Norte 0 -- -- 38
2019-06-15 11:00:00 17.6 9 Norte 20 Norte 0 -- -- 45
2019-06-15 10:00:00 15.9 12 Norte 19 Nordeste 0 -- -- 52
2019-06-15 09:00:00 14.6 7 Norte 18 Norte 0 -- -- 58
2019-06-15 08:00:00 13 2 Sudeste 5 Sudeste 0 -- -- 64
2019-06-15 07:00:00 10.1 4 Sudoeste 8 Sudoeste 0 -- -- 74
2019-06-15 06:00:00 10.5 4 Oeste 11 Sudoeste 0 -- -- 73
2019-06-15 05:00:00 11.7 3 Sur 27 Noroeste 0 -- -- 68
2019-06-15 04:00:00 13.2 15 Noroeste 24 Noroeste 0 -- -- 64
2019-06-15 03:00:00 13.4 12 Oeste 24 Oeste 0 -- -- 63
2019-06-15 02:00:00 14.4 20 Oeste 27 Noroeste 0 -- -- 57
2019-06-15 01:00:00 14.4 15 Oeste 27 Noroeste 0 -- -- 57
2019-06-15 00:00:00 15 15 Oeste 28 Oeste 0 -- -- 53
2019-06-14 23:00:00 15.8 18 Oeste 26 Oeste 0 -- -- 53
2019-06-14 22:00:00 16.7 17 Oeste 36 Oeste 0 -- -- 50
2019-06-14 21:00:00 19.6 28 Oeste 43 Oeste 0 -- -- 39
2019-06-14 20:00:00 19.7 28 Oeste 44 Oeste 0 -- -- 37
2019-06-14 19:00:00 21.2 27 Oeste 47 Sudoeste 0 -- -- 34
2019-06-14 18:00:00 22.8 26 Oeste 46 Sudoeste 0 -- -- 30
2019-06-14 17:00:00 24 23 Oeste 47 Oeste 0 -- -- 28
2019-06-14 16:00:00 22.6 21 Oeste 39 Oeste 0 -- -- 30
2019-06-14 15:00:00 22.1 15 Oeste 36 Sudoeste 0 -- -- 34
2019-06-14 14:00:00 19.9 15 Sudoeste 32 Oeste 0 -- -- 40
2019-06-14 13:00:00 20.7 19 Sudoeste 35 Sur 0 -- -- 40
2019-06-14 12:00:00 18.5 16 Sudoeste 28 Sur 0 -- -- 46
2019-06-14 11:00:00 16.6 14 Sudoeste 24 Sudoeste 0 -- -- 51
2019-06-14 10:00:00 14.8 9 Sudoeste 19 Oeste 0 -- -- 56
2019-06-14 09:00:00 12.8 10 Sudoeste 18 Oeste 0 -- -- 65
2019-06-14 08:00:00 11 6 Sudoeste 10 Sudoeste 0 -- -- 72
2019-06-14 07:00:00 9 3 Sudoeste 10 Oeste 0 -- -- 78
2019-06-14 06:00:00 9.3 8 Sudoeste 12 Sudoeste 0 -- -- 75
2019-06-14 05:00:00 10 8 Oeste 18 Sudoeste 0 -- -- 72
2019-06-14 04:00:00 11.2 14 Sudoeste 24 Oeste 0 -- -- 67
2019-06-14 03:00:00 13.3 21 Oeste 35 Sudoeste 0 -- -- 57
2019-06-14 02:00:00 14.4 22 Sudoeste 30 Oeste 0 -- -- 52
2019-06-14 01:00:00 15.6 17 Oeste 32 Oeste 0 -- -- 48
2019-06-14 00:00:00 17.7 22 Oeste 40 Oeste 0 -- -- 42
2019-06-13 23:00:00 19.9 26 Oeste 37 Oeste 0 -- -- 36
2019-06-13 22:00:00 22.2 18 Oeste 27 Oeste 0 -- -- 25
2019-06-13 21:00:00 25.6 16 Oeste 26 Oeste 0 -- -- 22
2019-06-13 20:00:00 27.2 10 Noroeste 32 Oeste 0 -- -- 20
2019-06-13 19:00:00 27.8 13 Sudoeste 29 Sudoeste 0 -- -- 19
2019-06-13 18:00:00 27.5 10 Sudoeste 32 Sudoeste 0 -- -- 21
2019-06-13 17:00:00 27.4 11 Sudoeste 33 Sudoeste 0 -- -- 20
2019-06-13 16:00:00 26.5 19 Oeste 29 Oeste 0 -- -- 20
2019-06-13 15:00:00 24.8 15 Oeste 26 Sudoeste 0 -- -- 23
2019-06-13 14:00:00 23.5 10 Sudeste 22 Sur 0 -- -- 23
2019-06-13 13:00:00 21.4 9 Sur 25 Sur 0 -- -- 27
2019-06-13 12:00:00 19.7 12 Sur 22 Sur 0 -- -- 35
2019-06-13 11:00:00 17.2 8 Sudeste 18 Sudeste 0 -- -- 46
2019-06-13 10:00:00 15.2 5 Sur 12 Sur 0 -- -- 54
2019-06-13 09:00:00 13.2 3 Oeste 7 Sur 0 -- -- 60
2019-06-13 08:00:00 11.3 0 Calma 4 Nordeste 0 -- -- 65
2019-06-13 07:00:00 8.3 2 Sudeste 8 Sur 0 -- -- 74
2019-06-13 06:00:00 8.7 5 Sudoeste 16 Oeste 0 -- -- 71
2019-06-13 05:00:00 10.2 8 Sudoeste 24 Sudoeste 0 -- -- 67
2019-06-13 04:00:00 11.8 15 Sudoeste 26 Sudoeste 0 -- -- 60
2019-06-13 03:00:00 13.8 15 Sudoeste 21 Oeste 0 -- -- 52
2019-06-13 02:00:00 15.5 14 Sudoeste 30 Sudoeste 0 -- -- 49
2019-06-13 01:00:00 16.8 19 Sudoeste 34 Oeste 0 -- -- 46
2019-06-13 00:00:00 18.6 20 Oeste 42 Oeste 0 -- -- 42
2019-06-12 23:00:00 20.1 30 Oeste 41 Oeste 0 -- -- 38
2019-06-12 22:00:00 21.9 13 Oeste 19 Oeste 0 -- -- 21
2019-06-12 21:00:00 25.9 14 Oeste 28 Oeste 0 -- -- 16
2019-06-12 20:00:00 26.8 13 Oeste 26 Oeste 0 -- -- 15
2019-06-12 19:00:00 27.3 10 Noroeste 29 Oeste 0 -- -- 15
2019-06-12 18:00:00 27.6 16 Sudoeste 32 Sudoeste 0 -- -- 13
2019-06-12 17:00:00 27.1 14 Sur 27 Sur 0 -- -- 17
2019-06-12 16:00:00 26.8 13 Oeste 58 Noroeste 0 -- -- 17
2019-06-12 15:00:00 26.6 13 Sudoeste 31 Sudoeste 0 -- -- 17
2019-06-12 14:00:00 25.5 9 Sudoeste 29 Sudeste 0 -- -- 20
2019-06-12 13:00:00 24.2 10 Sur 28 Sur 0 -- -- 21
2019-06-12 12:00:00 22.3 6 Sudeste 24 Este 0 -- -- 22
2019-06-12 11:00:00 20.9 14 Este 25 Nordeste 0 -- -- 25
2019-06-12 10:00:00 18.9 12 Este 27 Este 0 -- -- 30
2019-06-12 09:00:00 15.8 14 Norte 35 Norte 0 -- -- 39
2019-06-12 08:00:00 13.4 27 Norte 40 Norte 0 -- -- 44
2019-06-12 07:00:00 12.9 27 Norte 44 Norte 0 -- -- 44
2019-06-12 06:00:00 13.7 25 Norte 38 Norte 0 -- -- 41
2019-06-12 05:00:00 14.3 24 Norte 41 Norte 0 -- -- 40
2019-06-12 04:00:00 16 23 Norte 35 Norte 0 -- -- 35
2019-06-12 03:00:00 16.2 21 Norte 35 Norte 0 -- -- 37
2019-06-12 02:00:00 16.5 13 Norte 31 Norte 0 -- -- 31
2019-06-12 01:00:00 17.4 8 Norte 24 Nordeste 0 -- -- 26
2019-06-12 00:00:00 19.5 16 Nordeste 29 Nordeste 0 -- -- 24
2019-06-11 23:00:00 19.4 15 Nordeste 26 Nordeste 0 -- -- 23
2019-06-11 22:00:00 20.5 15 Nordeste 34 Nordeste 0 -- -- 21
2019-06-11 21:00:00 22.6 18 Nordeste 32 Nordeste 0 -- -- 19
2019-06-11 20:00:00 23.3 21 Nordeste 35 Norte 0 -- -- 19
2019-06-11 19:00:00 23.9 17 Nordeste 41 Norte 0 -- -- 19
2019-06-11 18:00:00 23.7 19 Nordeste 47 Norte 0 -- -- 19
2019-06-11 17:00:00 23.7 24 Nordeste 45 Este 0 -- -- 21
2019-06-11 16:00:00 23 22 Nordeste 47 Norte 0 -- -- 26
2019-06-11 15:00:00 23.4 21 Norte 51 Norte 0 -- -- 28
2019-06-11 14:00:00 21.7 23 Nordeste 40 Norte 0 -- -- 33
2019-06-11 13:00:00 20.3 19 Norte 39 Norte 0 -- -- 39
2019-06-11 12:00:00 19.8 24 Norte 46 Norte 0 -- -- 42
2019-06-11 11:00:00 18.6 27 Norte 41 Noroeste 0 -- -- 47
2019-06-11 10:00:00 17.4 25 Norte 41 Norte 0 -- -- 52
2019-06-11 09:00:00 15.9 26 Norte 40 Norte 0 -- -- 56
2019-06-11 08:00:00 14.7 28 Noroeste 48 Noroeste 0 -- -- 58
2019-06-11 07:00:00 14.2 37 Norte 52 Noroeste 0 -- -- 59
2019-06-11 06:00:00 14.5 31 Norte 45 Norte 0 -- -- 58
2019-06-11 05:00:00 15.1 23 Norte 33 Norte 0 -- -- 56
2019-06-11 04:00:00 15.9 17 Noroeste 27 Noroeste 0 -- -- 54
2019-06-11 03:00:00 16.4 13 Noroeste 37 Noroeste 0 -- -- 52
2019-06-11 02:00:00 16.8 27 Noroeste 45 Norte 0 -- -- 48
2019-06-11 01:00:00 17.7 25 Noroeste 43 Noroeste 0 -- -- 44
2019-06-11 00:00:00 18.8 29 Noroeste 48 Noroeste 0 -- -- 45
2019-06-10 23:00:00 20.6 23 Noroeste 33 Noroeste 0 -- -- 40
2019-06-10 22:00:00 22.4 20 Oeste 33 Oeste 0 -- -- 34
2019-06-10 21:00:00 25.4 15 Noroeste 26 Noroeste 0 -- -- 23
2019-06-10 20:00:00 27.2 11 Oeste 31 Noroeste 0 -- -- 22
2019-06-10 19:00:00 27.2 16 Noroeste 34 Norte 0 -- -- 20
2019-06-10 18:00:00 27.5 18 Oeste 32 Oeste 0 -- -- 18
2019-06-10 17:00:00 27.2 18 Oeste 42 Oeste 0 -- -- 20
2019-06-10 16:00:00 26.9 18 Oeste 32 Oeste 0 -- -- 23
2019-06-10 15:00:00 25.3 16 Noroeste 36 Oeste 0 -- -- 26
2019-06-10 14:00:00 24.7 13 Noroeste 35 Norte 0 -- -- 31
2019-06-10 13:00:00 22.9 18 Norte 34 Norte 0 -- -- 33
2019-06-10 12:00:00 22.2 14 Noroeste 33 Noroeste 0 -- -- 39
2019-06-10 11:00:00 20 20 Noroeste 36 Norte 0 -- -- 45
2019-06-10 10:00:00 18.3 17 Norte 28 Norte 0 -- -- 50
2019-06-10 09:00:00 16.1 23 Norte 37 Norte 0 -- -- 55
2019-06-10 08:00:00 14.9 17 Norte 29 Noroeste 0 -- -- 58
2019-06-10 07:00:00 13.7 19 Norte 28 Norte 0 -- -- 62
2019-06-10 06:00:00 14 23 Norte 37 Norte 0 -- -- 60
2019-06-10 05:00:00 14.7 24 Norte 37 Noroeste 0 -- -- 57
2019-06-10 04:00:00 15.5 27 Norte 36 Norte 0 -- -- 54
2019-06-10 03:00:00 16 21 Noroeste 40 Norte 0 -- -- 52
2019-06-10 02:00:00 16.8 30 Norte 40 Norte 0 -- -- 51
2019-06-10 01:00:00 17.2 24 Noroeste 35 Noroeste 0 -- -- 51
2019-06-10 00:00:00 18.6 26 Noroeste 42 Noroeste 0 -- -- 47
2019-06-09 23:00:00 19.7 18 Noroeste 39 Oeste 0 -- -- 44
2019-06-09 22:00:00 20.8 21 Oeste 40 Oeste 0 -- -- 38
2019-06-09 21:00:00 23.4 25 Oeste 44 Oeste 0 -- -- 31
2019-06-09 20:00:00 25.6 28 Oeste 42 Oeste 0 -- -- 27
2019-06-09 19:00:00 26 27 Oeste 44 Oeste 0 -- -- 25
2019-06-09 18:00:00 27.2 23 Oeste 41 Oeste 0 -- -- 23
2019-06-09 17:00:00 27.7 22 Sudoeste 40 Oeste 0 -- -- 22
2019-06-09 16:00:00 27.8 19 Oeste 36 Oeste 0 -- -- 23
2019-06-09 15:00:00 26.8 15 Oeste 36 Oeste 0 -- -- 25
2019-06-09 14:00:00 25.3 18 Sudoeste 36 Sur 0 -- -- 31
2019-06-09 13:00:00 23.6 18 Oeste 28 Oeste 0 -- -- 35
2019-06-09 12:00:00 22.2 9 Oeste 19 Sudoeste 0 -- -- 39
2019-06-09 11:00:00 19.4 6 Sur 17 Sudoeste 0 -- -- 44
2019-06-09 10:00:00 16.2 8 Sudoeste 14 Sudoeste 0 -- -- 49
2019-06-09 09:00:00 13.6 7 Sudoeste 14 Sudoeste 0 -- -- 55
2019-06-09 08:00:00 11.4 9 Sudoeste 14 Sudoeste 0 -- -- 62
2019-06-09 07:00:00 9.7 9 Sudoeste 17 Sudoeste 0 -- -- 69
2019-06-09 06:00:00 10.6 13 Sudoeste 26 Sudoeste 0 -- -- 68
2019-06-09 05:00:00 11.5 14 Sudoeste 20 Sudoeste 0 -- -- 65
2019-06-09 04:00:00 12.4 10 Sudoeste 14 Sudoeste 0 -- -- 60
2019-06-09 03:00:00 14.2 5 Sur 17 Oeste 0 -- -- 57
2019-06-09 02:00:00 18.3 16 Noroeste 37 Noroeste 0 -- -- 39
2019-06-09 01:00:00 18.9 26 Noroeste 44 Oeste 0 -- -- 41
2019-06-09 00:00:00 19.4 27 Oeste 42 Oeste 0 -- -- 47
2019-06-08 23:00:00 21.5 24 Oeste 37 Oeste 0 -- -- 41
2019-06-08 22:00:00 23.2 16 Oeste 28 Oeste 0 -- -- 22
2019-06-08 21:00:00 24.5 17 Noroeste 26 Oeste 0 -- -- 21
2019-06-08 20:00:00 27.7 10 Sudoeste 28 Oeste 0 -- -- 17
2019-06-08 19:00:00 28.5 19 Oeste 29 Oeste 0 -- -- 15
2019-06-08 18:00:00 28.8 18 Oeste 32 Sudoeste 0 -- -- 15
2019-06-08 17:00:00 29 10 Oeste 28 Oeste 0 -- -- 15
2019-06-08 16:00:00 28.9 17 Oeste 27 Sudoeste 0 -- -- 17
2019-06-08 15:00:00 28.5 14 Sudoeste 27 Sudoeste 0 -- -- 19
2019-06-08 14:00:00 26.7 7 Sur 24 Sudeste 0 -- -- 21
2019-06-08 13:00:00 25 12 Este 26 Este 0 -- -- 23
2019-06-08 12:00:00 23.4 17 Este 30 Este 0 -- -- 26
2019-06-08 11:00:00 21.2 19 Este 28 Este 0 -- -- 29
2019-06-08 10:00:00 18.6 12 Nordeste 20 Nordeste 0 -- -- 36
2019-06-08 09:00:00 15.7 17 Norte 30 Norte 0 -- -- 45
2019-06-08 08:00:00 14.3 16 Norte 27 Norte 0 -- -- 49
2019-06-08 07:00:00 13 21 Norte 32 Norte 0 -- -- 53
2019-06-08 06:00:00 13.2 24 Norte 37 Norte 0 -- -- 52
2019-06-08 05:00:00 14 27 Norte 42 Noroeste 0 -- -- 49
2019-06-08 04:00:00 14.4 29 Norte 44 Norte 0 -- -- 48
2019-06-08 03:00:00 15 28 Norte 41 Norte 0 -- -- 46
2019-06-08 02:00:00 15.3 23 Norte 32 Norte 0 -- -- 44
2019-06-08 01:00:00 15.5 21 Norte 28 Norte 0 -- -- 44
2019-06-08 00:00:00 16.4 20 Norte 28 Norte 0 -- -- 41
2019-06-07 23:00:00 17.1 18 Norte 25 Norte 0 -- -- 38
2019-06-07 22:00:00 17.1 10 Norte 15 Norte 0 -- -- 37
2019-06-07 21:00:00 20.6 9 Noroeste 21 Norte 0 -- -- 30
2019-06-07 20:00:00 22 9 Noroeste 29 Norte 0 -- -- 28
2019-06-07 19:00:00 22.4 14 Noroeste 29 Noroeste 0 -- -- 27
2019-06-07 18:00:00 21.9 16 Norte 30 Oeste 0 -- -- 27
2019-06-07 17:00:00 21.9 12 Noroeste 35 Norte 0 -- -- 29
2019-06-07 16:00:00 20.6 14 Norte 50 Oeste 0 -- -- 32
2019-06-07 15:00:00 21.4 10 Noroeste 31 Noroeste 0 -- -- 32
2019-06-07 14:00:00 18.8 17 Norte 37 Oeste 0 -- -- 36
2019-06-07 13:00:00 17.9 14 Noroeste 30 Oeste 0 -- -- 39
2019-06-07 12:00:00 16.8 13 Norte 31 Oeste 0 -- -- 45
2019-06-07 11:00:00 15.3 18 Noroeste 36 Noroeste 0 -- -- 46
2019-06-07 10:00:00 14.3 10 Oeste 22 Sudoeste 0 -- -- 65
2019-06-07 09:00:00 11.8 16 Oeste 27 Oeste 0 -- -- 80
2019-06-07 08:00:00 10.2 16 Oeste 26 Oeste 0 -- -- 86
2019-06-07 07:00:00 9.6 15 Oeste 24 Oeste 0 -- -- 87
2019-06-07 06:00:00 9.2 15 Oeste 21 Oeste 0 -- -- 88
2019-06-07 05:00:00 9.4 10 Oeste 19 Oeste 0 -- -- 89
2019-06-07 04:00:00 9.7 8 Oeste 17 Sudoeste 0 -- -- 90
2019-06-07 03:00:00 10.6 9 Oeste 26 Oeste 0 -- -- 87
2019-06-07 02:00:00 11.8 19 Oeste 33 Sudoeste 0 -- -- 84
2019-06-07 01:00:00 12.5 20 Oeste 30 Oeste 0 -- -- 87
2019-06-07 00:00:00 12.6 15 Oeste 57 Sudoeste 0.4 -- -- 86
2019-06-06 23:00:00 15.5 24 Sudoeste 50 Sudoeste 0 -- -- 77
2019-06-06 22:00:00 18 31 Sudoeste 51 Sudoeste 0 -- -- 59
2019-06-06 21:00:00 19.5 31 Sudoeste 50 Sudoeste 0 -- -- 49
2019-06-06 20:00:00 20.9 30 Sudoeste 49 Sudoeste 0 -- -- 42
2019-06-06 19:00:00 22 30 Sudoeste 53 Sudoeste 0 -- -- 38
2019-06-06 18:00:00 23.3 32 Sudoeste 53 Oeste 0 -- -- 33
2019-06-06 17:00:00 23.5 23 Sudoeste 45 Sudoeste 0 -- -- 32
2019-06-06 16:00:00 22.8 19 Sudoeste 36 Sudoeste 0 -- -- 33
2019-06-06 15:00:00 21.7 22 Sudoeste 39 Sudoeste 0 -- -- 36
2019-06-06 14:00:00 21.1 22 Sudoeste 45 Sudoeste 0 -- -- 36
2019-06-06 13:00:00 19.5 13 Sudoeste 26 Oeste 0 -- -- 36
2019-06-06 12:00:00 17.8 13 Oeste 29 Sudoeste 0 -- -- 42
2019-06-06 11:00:00 16 12 Sur 18 Sudoeste 0 -- -- 49
2019-06-06 10:00:00 13.6 8 Sudoeste 12 Sudoeste 0 -- -- 58
2019-06-06 09:00:00 11.8 7 Sudoeste 17 Sudoeste 0 -- -- 66
2019-06-06 08:00:00 9.6 3 Oeste 8 Este 0 -- -- 70
2019-06-06 07:00:00 8.8 5 Sudoeste 15 Sudoeste 0 -- -- 72
2019-06-06 06:00:00 9.9 3 Sudoeste 23 Sudoeste 0 -- -- 66
2019-06-06 05:00:00 10.5 17 Oeste 27 Oeste 0 -- -- 63
2019-06-06 04:00:00 10.7 15 Sudoeste 24 Oeste 0 -- -- 61
2019-06-06 03:00:00 11.6 7 Sur 26 Noroeste 0 -- -- 57
2019-06-06 02:00:00 12.5 9 Oeste 30 Oeste 0 -- -- 55
2019-06-06 01:00:00 13.6 17 Oeste 33 Noroeste 0 -- -- 51
2019-06-06 00:00:00 14.8 18 Noroeste 34 Noroeste 0 -- -- 46
2019-06-05 23:00:00 15.9 19 Noroeste 31 Noroeste 0 -- -- 40
2019-06-05 22:00:00 17.1 23 Oeste 37 Oeste 0 -- -- 36
2019-06-05 21:00:00 18.7 24 Oeste 37 Oeste 0 -- -- 32
2019-06-05 20:00:00 20.9 22 Oeste 41 Oeste 0 -- -- 29
2019-06-05 19:00:00 22.1 23 Oeste 41 Oeste 0 -- -- 27
2019-06-05 18:00:00 21.8 18 Oeste 37 Oeste 0 -- -- 28
2019-06-05 17:00:00 21.2 17 Oeste 41 Oeste 0 -- -- 30
2019-06-05 16:00:00 21.2 18 Oeste 40 Oeste 0 -- -- 29
2019-06-05 15:00:00 19.8 14 Noroeste 39 Oeste 0 -- -- 32
2019-06-05 14:00:00 19.1 16 Noroeste 40 Oeste 0 -- -- 35
2019-06-05 13:00:00 18.6 22 Noroeste 41 Oeste 0 -- -- 37
2019-06-05 12:00:00 17.9 21 Noroeste 40 Noroeste 0 -- -- 40
2019-06-05 11:00:00 16.6 18 Noroeste 41 Norte 0 -- -- 44
2019-06-05 10:00:00 15 18 Oeste 35 Oeste 0 -- -- 50
2019-06-05 09:00:00 13.6 17 Noroeste 49 Oeste 0 -- -- 55
2019-06-05 08:00:00 12.4 28 Oeste 49 Oeste 0 -- -- 59
2019-06-05 07:00:00 12 26 Oeste 41 Oeste 0 -- -- 61
2019-06-05 06:00:00 12.1 20 Oeste 45 Oeste 0 -- -- 61
2019-06-05 05:00:00 12.3 21 Noroeste 37 Noroeste 0 -- -- 61
2019-06-05 04:00:00 12.7 23 Noroeste 40 Noroeste 0 -- -- 61
2019-06-05 03:00:00 13.1 23 Noroeste 37 Oeste 0 -- -- 59
2019-06-05 02:00:00 13.9 27 Noroeste 42 Noroeste 0 -- -- 57
2019-06-05 01:00:00 14.6 23 Noroeste 35 Noroeste 0 -- -- 53
2019-06-05 00:00:00 14.9 25 Oeste 41 Oeste 0 -- -- 50
2019-06-04 23:00:00 16.8 24 Oeste 40 Oeste 0 -- -- 48
2019-06-04 22:00:00 18.2 28 Oeste 41 Oeste 0 -- -- 49
2019-06-04 21:00:00 19.8 18 Oeste 36 Oeste 0 -- -- 51
2019-06-04 20:00:00 21.1 28 Oeste 49 Oeste 0 -- -- 45
2019-06-04 19:00:00 21.1 31 Oeste 49 Oeste 0 -- -- 54
2019-06-04 18:00:00 23.7 33 Oeste 51 Oeste 0 -- -- 48
2019-06-04 17:00:00 25.5 24 Oeste 44 Oeste 0 -- -- 39
2019-06-04 16:00:00 25.1 19 Sudoeste 42 Sudoeste 0 -- -- 38
2019-06-04 15:00:00 26 18 Sudoeste 41 Sudoeste 0 -- -- 37
2019-06-04 14:00:00 24.8 16 Sudoeste 36 Sudoeste 0 -- -- 42
2019-06-04 13:00:00 23.5 18 Oeste 33 Sudoeste 0 -- -- 46
2019-06-04 12:00:00 22.1 15 Oeste 30 Sudoeste 0 -- -- 49
2019-06-04 11:00:00 20.4 13 Oeste 26 Oeste 0 -- -- 56
2019-06-04 10:00:00 18.2 13 Oeste 23 Oeste 0 -- -- 66
2019-06-04 09:00:00 16 17 Oeste 23 Sudoeste 0 -- -- 75
2019-06-04 08:00:00 14.6 11 Sudoeste 17 Oeste 0 -- -- 83
2019-06-04 07:00:00 14.2 9 Sudoeste 14 Oeste 0 -- -- 86
2019-06-04 06:00:00 15.1 6 Oeste 12 Sudoeste 0 -- -- 83
2019-06-04 05:00:00 16.1 6 Sudoeste 19 Oeste 0 -- -- 78
2019-06-04 04:00:00 17.3 14 Oeste 20 Oeste 0 -- -- 73
2019-06-04 03:00:00 18.3 11 Oeste 17 Sudoeste 0 -- -- 67
2019-06-04 02:00:00 19.9 10 Sudoeste 26 Oeste 0 -- -- 62
2019-06-04 01:00:00 21.4 14 Oeste 28 Oeste 0 -- -- 57
2019-06-04 00:00:00 22.8 17 Oeste 39 Noroeste 0 -- -- 53
2019-06-03 23:00:00 24.6 21 Noroeste 32 Oeste 0 -- -- 45
2019-06-03 22:00:00 26 17 Oeste 37 Oeste 0 -- -- 42
2019-06-03 21:00:00 28.5 25 Oeste 44 Oeste 0 -- -- 36
2019-06-03 20:00:00 31 27 Oeste 44 Oeste 0 -- -- 25
2019-06-03 19:00:00 32.6 33 Oeste 46 Sudoeste 0 -- -- 19
2019-06-03 18:00:00 33.6 27 Oeste 45 Oeste 0 -- -- 16
2019-06-03 17:00:00 34.1 19 Sudoeste 42 Oeste 0 -- -- 15
2019-06-03 16:00:00 34 21 Sudoeste 36 Oeste 0 -- -- 13
2019-06-03 15:00:00 33 17 Oeste 33 Sudoeste 0 -- -- 15
2019-06-03 14:00:00 31.9 17 Sudoeste 29 Oeste 0 -- -- 15
2019-06-03 13:00:00 30.7 14 Sudoeste 26 Oeste 0 -- -- 16
2019-06-03 12:00:00 28.4 10 Sudoeste 26 Sur 0 -- -- 22
2019-06-03 11:00:00 25.9 8 Sur 14 Sur 0 -- -- 30
2019-06-03 10:00:00 23.7 6 Sur 11 Sur 0 -- -- 36
2019-06-03 09:00:00 20.6 2 Sudoeste 7 Sur 0 -- -- 42
2019-06-03 08:00:00 18.9 2 Sudeste 4 Sudeste 0 -- -- 46
2019-06-03 07:00:00 18.9 3 Sudoeste 8 Oeste 0 -- -- 44
2019-06-03 06:00:00 19 7 Sudoeste 11 Sudoeste 0 -- -- 43
2019-06-03 05:00:00 19.3 7 Oeste 10 Oeste 0 -- -- 43
2019-06-03 04:00:00 20.5 4 Oeste 14 Sudoeste 0 -- -- 40
2019-06-03 03:00:00 21.1 5 Oeste 13 Sudoeste 0 -- -- 37
2019-06-03 02:00:00 23.1 6 Sudoeste 10 Sudoeste 0 -- -- 31
2019-06-03 01:00:00 24.2 3 Oeste 15 Sudoeste 0 -- -- 28
2019-06-03 00:00:00 26.3 12 Noroeste 30 Noroeste 0 -- -- 22
2019-06-02 23:00:00 27.3 22 Noroeste 42 Noroeste 0 -- -- 25
2019-06-02 22:00:00 29 29 Noroeste 40 Noroeste 0 -- -- 23
2019-06-02 21:00:00 30.9 23 Oeste 44 Oeste 0 -- -- 18
2019-06-02 20:00:00 32.9 28 Oeste 44 Noroeste 0 -- -- 17
2019-06-02 19:00:00 34.9 16 Oeste 34 Oeste 0 -- -- 15
2019-06-02 18:00:00 36.4 17 Sudoeste 39 Sudoeste 0 -- -- 14
2019-06-02 17:00:00 36 16 Oeste 30 Oeste 0 -- -- 15
2019-06-02 16:00:00 35.8 13 Sudoeste 28 Sur 0 -- -- 17
2019-06-02 15:00:00 34.7 4 Sudoeste 22 Oeste 0 -- -- 19
2019-06-02 14:00:00 33.3 9 Este 17 Sudeste 0 -- -- 21
2019-06-02 13:00:00 32.1 7 Este 21 Este 0 -- -- 23
2019-06-02 12:00:00 29.7 8 Este 23 Sudeste 0 -- -- 26
2019-06-02 11:00:00 27.6 12 Este 19 Este 0 -- -- 28
2019-06-02 10:00:00 26.4 10 Este 17 Este 0 -- -- 30
2019-06-02 09:00:00 24.6 9 Este 13 Nordeste 0 -- -- 32
2019-06-02 08:00:00 21.9 7 Sudoeste 19 Nordeste 0 -- -- 41
2019-06-02 07:00:00 25 16 Norte 32 Norte 0 -- -- 30
2019-06-02 06:00:00 25.5 13 Norte 35 Norte 0 -- -- 28
2019-06-02 05:00:00 26.3 30 Norte 38 Norte 0 -- -- 28
2019-06-02 04:00:00 26.3 22 Norte 34 Norte 0 -- -- 29
2019-06-02 03:00:00 26.5 23 Norte 36 Norte 0 -- -- 28
2019-06-02 02:00:00 27.1 23 Norte 34 Norte 0 -- -- 28
2019-06-02 01:00:00 27.7 23 Norte 33 Norte 0 -- -- 26
2019-06-02 00:00:00 26.5 9 Sur 25 Sur 0 -- -- 26
2019-06-01 23:00:00 29.4 9 Norte 11 Norte 0 -- -- 22
2019-06-01 22:00:00 29.6 10 Norte 11 Norte 0 -- -- 22
2019-06-01 21:00:00 32.7 9 Norte 15 Norte 0 -- -- 20
2019-06-01 20:00:00 33.7 8 Norte 17 Norte 0 -- -- 18
2019-06-01 19:00:00 34.6 10 Norte 22 Norte 0 -- -- 17
2019-06-01 18:00:00 35.3 5 Este 17 Nordeste 0 -- -- 16
2019-06-01 17:00:00 35.2 6 Norte 22 Nordeste 0 -- -- 15
2019-06-01 16:00:00 34.9 9 Nordeste 22 Norte 0 -- -- 16
2019-06-01 15:00:00 34.4 9 Sudeste 18 Nordeste 0 -- -- 17
2019-06-01 14:00:00 33 9 Sudeste 19 Sudeste 0 -- -- 20
2019-06-01 13:00:00 31.4 7 Este 23 Este 0 -- -- 22
2019-06-01 12:00:00 29.8 13 Este 24 Sudeste 0 -- -- 23
2019-06-01 11:00:00 27.7 9 Sudeste 19 Sudeste 0 -- -- 27
2019-06-01 10:00:00 25.5 11 Sudeste 22 Sudeste 0 -- -- 30
2019-06-01 09:00:00 23.4 14 Este 21 Sudeste 0 -- -- 33
2019-06-01 08:00:00 21.5 9 Este 15 Este 0 -- -- 33
2019-06-01 07:00:00 21.6 9 Nordeste 15 Nordeste 0 -- -- 31
2019-06-01 06:00:00 22.2 9 Nordeste 12 Este 0 -- -- 30
2019-06-01 05:00:00 24.6 5 Este 13 Nordeste 0 -- -- 26
2019-06-01 04:00:00 25.7 8 Nordeste 13 Nordeste 0 -- -- 30
2019-06-01 03:00:00 24.6 11 Norte 23 Sudeste 0 -- -- 33
2019-06-01 02:00:00 27.2 8 Nordeste 11 Norte 0 -- -- 28
2019-06-01 01:00:00 27.6 8 Nordeste 13 Norte 0 -- -- 25
2019-06-01 00:00:00 25.8 13 Nordeste 19 Este 0 -- -- 27
2019-05-31 23:00:00 27.1 6 Norte 9 Norte 0 -- -- 25
2019-05-31 22:00:00 27.9 7 Norte 9 Norte 0 -- -- 24
2019-05-31 21:00:00 32.1 8 Norte 18 Norte 0 -- -- 20
2019-05-31 20:00:00 33.4 10 Norte 19 Norte 0 -- -- 18
2019-05-31 19:00:00 34.1 11 Noroeste 22 Nordeste 0 -- -- 18
2019-05-31 18:00:00 34.2 8 Oeste 36 Este 0 -- -- 17
2019-05-31 17:00:00 34.4 10 Sudeste 25 Nordeste 0 -- -- 17
2019-05-31 16:00:00 33.9 10 Nordeste 26 Este 0 -- -- 17
2019-05-31 15:00:00 32.8 12 Nordeste 23 Nordeste 0 -- -- 19
2019-05-31 14:00:00 31.9 10 Nordeste 22 Sudeste 0 -- -- 21
2019-05-31 13:00:00 30.9 9 Sudeste 21 Sudeste 0 -- -- 22
2019-05-31 12:00:00 28.8 13 Sudeste 26 Este 0 -- -- 25
2019-05-31 11:00:00 26.7 19 Este 36 Este 0 -- -- 27
2019-05-31 10:00:00 24.9 19 Este 32 Este 0 -- -- 29
2019-05-31 09:00:00 23.2 18 Este 28 Este 0 -- -- 30
2019-05-31 08:00:00 21.4 17 Este 29 Este 0 -- -- 32
2019-05-31 07:00:00 21.4 24 Este 35 Nordeste 0 -- -- 31
2019-05-31 06:00:00 21.3 21 Este 31 Nordeste 0 -- -- 34
2019-05-31 05:00:00 21.2 11 Nordeste 18 Nordeste 0 -- -- 38
2019-05-31 04:00:00 21.6 6 Este 16 Sur 0 -- -- 36
2019-05-31 03:00:00 23.7 6 Nordeste 22 Norte 0 -- -- 32
2019-05-31 02:00:00 26.5 12 Norte 17 Norte 0 -- -- 24
2019-05-31 01:00:00 26.5 9 Nordeste 13 Nordeste 0 -- -- 23
2019-05-31 00:00:00 26.3 9 Nordeste 13 Nordeste 0 -- -- 24
2019-05-30 23:00:00 26.4 8 Nordeste 13 Nordeste 0 -- -- 26
2019-05-30 22:00:00 27.4 9 Nordeste 13 Nordeste 0 -- -- 26
2019-05-30 21:00:00 30.5 9 Este 18 Nordeste 0 -- -- 22
2019-05-30 20:00:00 31.6 6 Nordeste 22 Este 0 -- -- 21
2019-05-30 19:00:00 32 8 Nordeste 26 Nordeste 0 -- -- 21
2019-05-30 18:00:00 31.7 12 Nordeste 26 Este 0 -- -- 20
2019-05-30 17:00:00 31.6 15 Este 32 Este 0 -- -- 20
2019-05-30 16:00:00 30.8 15 Este 31 Este 0 -- -- 21
2019-05-30 15:00:00 30.1 17 Este 37 Sudeste 0 -- -- 21
2019-05-30 14:00:00 28.3 17 Este 35 Este 0 -- -- 24
2019-05-30 13:00:00 26.5 22 Este 38 Nordeste 0 -- -- 28
2019-05-30 12:00:00 25.1 26 Este 49 Este 0 -- -- 30
2019-05-30 11:00:00 23.3 33 Este 52 Nordeste 0 -- -- 33
2019-05-30 10:00:00 21.7 28 Este 49 Nordeste 0 -- -- 35
2019-05-30 09:00:00 20.3 31 Este 49 Este 0 -- -- 37
2019-05-30 08:00:00 19.3 28 Nordeste 46 Este 0 -- -- 38
2019-05-30 07:00:00 19.1 26 Este 39 Este 0 -- -- 38
2019-05-30 06:00:00 20 21 Este 36 Este 0 -- -- 38
2019-05-30 05:00:00 20.9 21 Nordeste 30 Nordeste 0 -- -- 34
2019-05-30 04:00:00 21.8 17 Nordeste 24 Nordeste 0 -- -- 30
2019-05-30 03:00:00 22 16 Nordeste 22 Nordeste 0 -- -- 28
2019-05-30 02:00:00 22.6 16 Nordeste 23 Nordeste 0 -- -- 31
2019-05-30 01:00:00 23 17 Norte 31 Norte 0 -- -- 31
2019-05-30 00:00:00 23.1 21 Norte 33 Norte 0 -- -- 31
2019-05-29 23:00:00 23.7 17 Norte 27 Norte 0 -- -- 31
2019-05-29 22:00:00 24.9 15 Norte 32 Norte 0 -- -- 31
2019-05-29 21:00:00 27.7 19 Norte 35 Norte 0 -- -- 26
2019-05-29 20:00:00 29 21 Norte 32 Norte 0 -- -- 24
2019-05-29 19:00:00 29.8 22 Norte 34 Norte 0 -- -- 22
2019-05-29 18:00:00 29.9 14 Norte 27 Norte 0 -- -- 23
2019-05-29 17:00:00 29.3 10 Norte 26 Este 0 -- -- 25
2019-05-29 16:00:00 28.3 10 Nordeste 26 Este 0 -- -- 26
2019-05-29 15:00:00 26.9 14 Nordeste 30 Este 0 -- -- 28
2019-05-29 14:00:00 25.4 14 Este 33 Este 0 -- -- 29
2019-05-29 13:00:00 23.6 18 Este 33 Este 0 -- -- 31
2019-05-29 12:00:00 21.9 17 Nordeste 33 Este 0 -- -- 33
2019-05-29 11:00:00 20.7 18 Este 38 Nordeste 0 -- -- 35
2019-05-29 10:00:00 18.9 28 Este 44 Nordeste 0 -- -- 37
2019-05-29 09:00:00 18.2 24 Nordeste 35 Este 0 -- -- 38
2019-05-29 08:00:00 17 16 Nordeste 35 Nordeste 0 -- -- 42
2019-05-29 07:00:00 17 23 Nordeste 33 Nordeste 0 -- -- 41
2019-05-29 06:00:00 17.4 16 Nordeste 32 Nordeste 0 -- -- 40
2019-05-29 05:00:00 18.3 19 Nordeste 34 Nordeste 0 -- -- 38
2019-05-29 04:00:00 18.7 20 Nordeste 35 Norte 0 -- -- 37
2019-05-29 03:00:00 20.1 17 Nordeste 32 Nordeste 0 -- -- 34
2019-05-29 02:00:00 20.5 22 Norte 33 Norte 0 -- -- 32
2019-05-29 01:00:00 21.4 20 Norte 38 Norte 0 -- -- 30
2019-05-29 00:00:00 22.3 25 Norte 43 Norte 0 -- -- 29
2019-05-28 23:00:00 23.2 29 Norte 43 Norte 0 -- -- 27
2019-05-28 22:00:00 24.5 29 Norte 47 Norte 0 -- -- 25
2019-05-28 21:00:00 26.3 30 Norte 45 Norte 0 -- -- 24
2019-05-28 20:00:00 27.8 30 Norte 43 Nordeste 0 -- -- 22
2019-05-28 19:00:00 28.5 27 Norte 44 Norte 0 -- -- 21
2019-05-28 18:00:00 29.3 20 Norte 42 Norte 0 -- -- 19
2019-05-28 17:00:00 28.9 28 Norte 47 Norte 0 -- -- 20
2019-05-28 16:00:00 28.7 26 Norte 42 Norte 0 -- -- 17
2019-05-28 15:00:00 28 21 Norte 39 Norte 0 -- -- 18
2019-05-28 14:00:00 27.3 21 Norte 41 Nordeste 0 -- -- 22
2019-05-28 13:00:00 26.3 29 Norte 45 Norte 0 -- -- 28
2019-05-28 12:00:00 25 18 Nordeste 35 Norte 0 -- -- 37
2019-05-28 11:00:00 22.5 28 Norte 39 Norte 0 -- -- 44
2019-05-28 10:00:00 20.3 23 Norte 38 Nordeste 0 -- -- 50
2019-05-28 09:00:00 19.6 27 Nordeste 41 Nordeste 0 -- -- 49
2019-05-28 08:00:00 18.7 21 Norte 36 Norte 0 -- -- 51
2019-05-28 07:00:00 17.2 22 Norte 36 Norte 0 -- -- 56
2019-05-28 06:00:00 19 26 Norte 40 Norte 0 -- -- 50
2019-05-28 05:00:00 19.6 29 Norte 43 Norte 0 -- -- 49
2019-05-28 04:00:00 20.8 32 Norte 48 Norte 0 -- -- 45
2019-05-28 03:00:00 21.8 25 Norte 35 Norte 0 -- -- 42
2019-05-28 02:00:00 22.4 22 Norte 36 Noroeste 0 -- -- 40
2019-05-28 01:00:00 22.5 25 Norte 41 Norte 0 -- -- 40
2019-05-28 00:00:00 23.6 18 Norte 27 Norte 0 -- -- 37
2019-05-27 23:00:00 24.2 13 Norte 20 Noroeste 0 -- -- 37
2019-05-27 22:00:00 25.3 12 Norte 25 Norte 0 -- -- 34
2019-05-27 21:00:00 28.2 17 Norte 31 Norte 0 -- -- 27
2019-05-27 20:00:00 29.3 15 Noroeste 38 Noroeste 0 -- -- 25
2019-05-27 19:00:00 30.6 18 Norte 33 Norte 0 -- -- 24
2019-05-27 18:00:00 31.1 21 Noroeste 33 Noroeste 0 -- -- 25
2019-05-27 17:00:00 31.6 21 Norte 39 Noroeste 0 -- -- 25
2019-05-27 16:00:00 30.9 25 Norte 40 Norte 0 -- -- 25
2019-05-27 15:00:00 29.7 16 Noroeste 37 Noroeste 0 -- -- 31
2019-05-27 14:00:00 29.2 16 Noroeste 36 Noroeste 0 -- -- 30
2019-05-27 13:00:00 28 17 Norte 29 Norte 0 -- -- 34
2019-05-27 12:00:00 26.2 12 Norte 29 Norte 0 -- -- 37
2019-05-27 11:00:00 24.4 18 Norte 32 Norte 0 -- -- 41
2019-05-27 10:00:00 22.7 19 Norte 33 Norte 0 -- -- 43
2019-05-27 09:00:00 21.5 15 Norte 26 Norte 0 -- -- 45
2019-05-27 08:00:00 20.8 9 Norte 23 Norte 0 -- -- 44
2019-05-27 07:00:00 20.4 10 Norte 23 Norte 0 -- -- 43
2019-05-27 06:00:00 20.9 13 Norte 19 Norte 0 -- -- 42
2019-05-27 05:00:00 21.5 7 Sudeste 28 Norte 0 -- -- 40
2019-05-27 04:00:00 22.7 23 Norte 29 Norte 0 -- -- 37
2019-05-27 03:00:00 22.9 21 Norte 27 Noroeste 0 -- -- 35
2019-05-27 02:00:00 23 16 Norte 22 Norte 0 -- -- 36
2019-05-27 01:00:00 22.7 9 Norte 14 Norte 0 -- -- 35
2019-05-27 00:00:00 23.2 11 Norte 15 Norte 0 -- -- 33
2019-05-26 23:00:00 23.9 9 Norte 15 Norte 0 -- -- 32
2019-05-26 22:00:00 25.7 9 Nordeste 27 Nordeste 0 -- -- 29
2019-05-26 21:00:00 28.1 16 Nordeste 32 Nordeste 0 -- -- 26
2019-05-26 20:00:00 29.1 19 Nordeste 33 Nordeste 0 -- -- 25
2019-05-26 19:00:00 30 19 Norte 45 Nordeste 0 -- -- 24
2019-05-26 18:00:00 30.1 19 Norte 40 Norte 0 -- -- 25
2019-05-26 17:00:00 29.8 23 Norte 44 Norte 0 -- -- 26
2019-05-26 16:00:00 29.2 24 Norte 44 Norte 0 -- -- 26
2019-05-26 15:00:00 27.9 27 Norte 41 Norte 0 -- -- 28
2019-05-26 14:00:00 27 23 Norte 37 Norte 0 -- -- 30
2019-05-26 13:00:00 25.3 15 Norte 34 Nordeste 0 -- -- 35
2019-05-26 12:00:00 23.2 17 Norte 26 Norte -- -- -- 37
2019-05-26 11:00:00 21.7 13 Norte 23 Norte 0 -- -- 37
2019-05-26 10:00:00 19.6 15 Norte 30 Norte 0 -- -- 39
2019-05-26 09:00:00 17.5 23 Norte 34 Norte 0 -- -- 41
2019-05-26 08:00:00 16.2 19 Norte 33 Norte 0 -- -- 42
2019-05-26 07:00:00 16.2 22 Norte 37 Norte 0 -- -- 43
2019-05-26 06:00:00 16.9 22 Norte 35 Norte 0 -- -- 43
2019-05-26 05:00:00 17.4 21 Norte 41 Norte 0 -- -- 43
2019-05-26 04:00:00 18.5 25 Norte 39 Norte 0 -- -- 39
2019-05-26 03:00:00 19.2 21 Norte 32 Norte 0 -- -- 37
2019-05-26 02:00:00 19.7 18 Norte 28 Norte 0 -- -- 36
2019-05-26 01:00:00 20 19 Norte 31 Norte 0 -- -- 35
2019-05-26 00:00:00 20.6 21 Norte 35 Norte 0 -- -- 34
2019-05-25 23:00:00 22.5 21 Norte 45 Nordeste 0 -- -- 30
2019-05-25 22:00:00 23.4 22 Nordeste 39 Norte 0 -- -- 28
2019-05-25 21:00:00 24.8 23 Nordeste 40 Norte 0 -- -- 27
2019-05-25 20:00:00 26 22 Nordeste 36 Nordeste 0 -- -- 25
2019-05-25 19:00:00 26.7 20 Norte 33 Norte 0 -- -- 24
2019-05-25 18:00:00 26.7 17 Nordeste 32 Norte 0 -- -- 25
2019-05-25 17:00:00 26.4 17 Norte 30 Norte 0 -- -- 28
2019-05-25 16:00:00 25.7 14 Norte 32 Norte 0 -- -- 30
2019-05-25 15:00:00 25 14 Norte 30 Nordeste 0 -- -- 31
2019-05-25 14:00:00 24.2 12 Nordeste 30 Norte 0 -- -- 33
2019-05-25 13:00:00 22.3 13 Norte 27 Norte 0 -- -- 37
2019-05-25 12:00:00 20.6 18 Noroeste 30 Nordeste 0 -- -- 40
2019-05-25 11:00:00 19.8 15 Nordeste 28 Nordeste 0 -- -- 41
2019-05-25 10:00:00 18.2 15 Nordeste 28 Norte 0 -- -- 45
2019-05-25 09:00:00 15.4 22 Norte 33 Norte 0 -- -- 56
2019-05-25 08:00:00 14 19 Norte 32 Norte 0 -- -- 59
2019-05-25 07:00:00 13.5 23 Norte 34 Norte 0 -- -- 58
2019-05-25 06:00:00 14.3 26 Norte 37 Norte 0 -- -- 54
2019-05-25 05:00:00 14.9 24 Norte 38 Norte 0 -- -- 53
2019-05-25 04:00:00 16.1 22 Norte 37 Norte 0 -- -- 48
2019-05-25 03:00:00 16.5 21 Norte 30 Norte 0 -- -- 47
2019-05-25 02:00:00 17.9 20 Norte 33 Norte 0 -- -- 42
2019-05-25 01:00:00 19.2 24 Norte 37 Norte 0 -- -- 38
2019-05-25 00:00:00 20.5 22 Norte 35 Norte 0 -- -- 34
2019-05-24 23:00:00 21.6 22 Norte 40 Norte 0 -- -- 32
2019-05-24 22:00:00 22.9 21 Nordeste 42 Norte 0 -- -- 29
2019-05-24 21:00:00 24 24 Norte 41 Norte 0 -- -- 28
2019-05-24 20:00:00 25.5 28 Norte 48 Nordeste 0 -- -- 25
2019-05-24 19:00:00 26.3 31 Norte 45 Norte 0 -- -- 24
2019-05-24 18:00:00 27 26 Norte 45 Norte 0 -- -- 24
2019-05-24 17:00:00 26.8 26 Norte 46 Norte 0 -- -- 26
2019-05-24 16:00:00 26.2 32 Norte 51 Norte 0 -- -- 29
2019-05-24 15:00:00 25.4 30 Norte 47 Norte 0 -- -- 32
2019-05-24 14:00:00 24 37 Norte 59 Norte 0 -- -- 32
2019-05-24 13:00:00 23 31 Norte 58 Norte 0 -- -- 39
2019-05-24 12:00:00 21.7 30 Norte 54 Norte 0 -- -- 44
2019-05-24 11:00:00 19.7 40 Norte 56 Norte 0 -- -- 51
2019-05-24 10:00:00 19 28 Norte 50 Norte 0 -- -- 54
2019-05-24 09:00:00 16.3 24 Noroeste 39 Noroeste 0 -- -- 53
2019-05-24 08:00:00 14.8 25 Noroeste 40 Norte 0 -- -- 57
2019-05-24 07:00:00 15.4 14 Noroeste 26 Noroeste 0 -- -- 53
2019-05-24 06:00:00 16.7 17 Norte 30 Norte 0 -- -- 52
2019-05-24 05:00:00 16.5 22 Norte 50 Norte 0 -- -- 55
2019-05-24 04:00:00 17.3 39 Norte 54 Norte 0 -- -- 54
2019-05-24 03:00:00 18 35 Norte 50 Norte 0 -- -- 53
2019-05-24 02:00:00 19 34 Norte 46 Norte 0 -- -- 50
2019-05-24 01:00:00 19.9 31 Norte 44 Norte 0 -- -- 49
2019-05-24 00:00:00 20.4 33 Norte 44 Norte 0 -- -- 51
2019-05-23 23:00:00 21.4 25 Noroeste 39 Noroeste 0 -- -- 49
2019-05-23 22:00:00 22.3 21 Oeste 37 Oeste 0 -- -- 44
2019-05-23 21:00:00 24.4 27 Oeste 42 Oeste 0 -- -- 37
2019-05-23 20:00:00 27.7 18 Oeste 33 Oeste 0 -- -- 25
2019-05-23 19:00:00 29.4 20 Sudoeste 33 Oeste 0 -- -- 24
2019-05-23 18:00:00 30.1 22 Oeste 38 Sudoeste 0 -- -- 23
2019-05-23 17:00:00 30.1 18 Sudoeste 35 Sudoeste 0 -- -- 26
2019-05-23 16:00:00 29.6 15 Oeste 33 Oeste 0 -- -- 25
2019-05-23 15:00:00 28.4 16 Oeste 30 Sudoeste 0 -- -- 28
2019-05-23 14:00:00 27.1 13 Oeste 30 Oeste 0 -- -- 30
2019-05-23 13:00:00 25.9 10 Sudoeste 28 Sudoeste 0 -- -- 36
2019-05-23 12:00:00 23.8 13 Sudoeste 24 Oeste 0 -- -- 42
2019-05-23 11:00:00 22.3 14 Sudoeste 22 Sudoeste 0 -- -- 46
2019-05-23 10:00:00 19.2 4 Sudoeste 9 Sudoeste 0 -- -- 60
2019-05-23 09:00:00 15.3 3 Oeste 10 Sudoeste 0 -- -- 73
2019-05-23 08:00:00 14.8 3 Sudoeste 6 Sudoeste 0 -- -- 77
2019-05-23 07:00:00 14.9 3 Sudoeste 9 Sudoeste 0 -- -- 76
2019-05-23 06:00:00 16.3 3 Sudeste 5 Este 0 -- -- 70
2019-05-23 05:00:00 18.1 3 Oeste 13 Norte 0 -- -- 63
2019-05-23 04:00:00 18.2 2 Sudeste 14 Sudoeste 0 -- -- 63
2019-05-23 03:00:00 18.9 7 Oeste 24 Noroeste 0 -- -- 60
2019-05-23 02:00:00 21 23 Norte 39 Noroeste 0 -- -- 53
2019-05-23 01:00:00 22.2 29 Noroeste 44 Noroeste 0 -- -- 51
2019-05-23 00:00:00 23.2 25 Noroeste 36 Oeste 0 -- -- 49
2019-05-22 23:00:00 24 21 Oeste 31 Oeste 0 -- -- 38
2019-05-22 22:00:00 24.9 8 Noroeste 19 Oeste 0 -- -- 33
2019-05-22 21:00:00 27.7 8 Sudoeste 17 Oeste 0 -- -- 28
2019-05-22 20:00:00 29.5 13 Sudoeste 19 Oeste 0 -- -- 25
2019-05-22 19:00:00 29.9 12 Oeste 25 Oeste 0 -- -- 25
2019-05-22 18:00:00 30.6 11 Sudoeste 27 Oeste 0 -- -- 24
2019-05-22 17:00:00 29.9 14 Oeste 31 Sudoeste 0 -- -- 24
2019-05-22 16:00:00 29.9 11 Sudoeste 28 Oeste 0 -- -- 25
2019-05-22 15:00:00 28.3 10 Sudoeste 27 Sudoeste 0 -- -- 27
2019-05-22 14:00:00 28.2 13 Oeste 28 Sudoeste 0 -- -- 24
2019-05-22 13:00:00 27 8 Sudoeste 22 Sudoeste 0 -- -- 29
2019-05-22 12:00:00 25.1 8 Sudeste 22 Este 0 -- -- 35
2019-05-22 11:00:00 23.1 10 Este 22 Este 0 -- -- 42
2019-05-22 10:00:00 20.6 13 Este 19 Este 0 -- -- 49
2019-05-22 09:00:00 18.1 9 Este 21 Nordeste 0 -- -- 61
2019-05-22 08:00:00 15.3 10 Nordeste 18 Nordeste 0 -- -- 72
2019-05-22 07:00:00 14.4 13 Nordeste 18 Nordeste 0 -- -- 74
2019-05-22 06:00:00 14.1 3 Sudeste 9 Norte 0 -- -- 72
2019-05-22 05:00:00 15.2 0 Calma 8 Oeste 0 -- -- 69
2019-05-22 04:00:00 15.5 4 Oeste 9 Sudoeste 0 -- -- 71
2019-05-22 03:00:00 16.5 2 Sudoeste 15 Oeste 0 -- -- 67
2019-05-22 02:00:00 17.8 10 Sudoeste 19 Oeste 0 -- -- 62
2019-05-22 01:00:00 19.4 13 Sudoeste 33 Oeste 0 -- -- 57
2019-05-22 00:00:00 20.9 18 Oeste 34 Noroeste 0 -- -- 51
2019-05-21 23:00:00 21.4 22 Oeste 32 Oeste 0 -- -- 47
2019-05-21 22:00:00 20.4 9 Norte 11 Norte 0 -- -- 38
2019-05-21 21:00:00 25 6 Noroeste 12 Noroeste 0 -- -- 29
2019-05-21 20:00:00 26.1 7 Noroeste 17 Norte 0 -- -- 26
2019-05-21 19:00:00 25.9 6 Noroeste 23 Oeste 0 -- -- 29
2019-05-21 18:00:00 26.3 10 Oeste 23 Noroeste 0 -- -- 28
2019-05-21 17:00:00 24.9 12 Noroeste 20 Noroeste 0 -- -- 31
2019-05-21 16:00:00 26 11 Oeste 26 Oeste 0 -- -- 29
2019-05-21 15:00:00 24.8 11 Norte 24 Norte 0 -- -- 31
2019-05-21 14:00:00 23.8 13 Norte 22 Norte 0 -- -- 33
2019-05-21 13:00:00 22.7 7 Nordeste 24 Norte 0 -- -- 35
2019-05-21 12:00:00 21.3 10 Norte 24 Norte 0 -- -- 38
2019-05-21 11:00:00 19.7 12 Norte 21 Noroeste 0 -- -- 44
2019-05-21 10:00:00 17.5 12 Noroeste 19 Norte 0 -- -- 50
2019-05-21 09:00:00 14.5 3 Sur 6 Sudoeste 0 -- -- 60
2019-05-21 08:00:00 12.3 2 Sudoeste 8 Sudeste 0 -- -- 66
2019-05-21 07:00:00 12.2 6 Noroeste 24 Norte 0 -- -- 66
2019-05-21 06:00:00 13.7 8 Noroeste 30 Norte 0 -- -- 61
2019-05-21 05:00:00 14.3 15 Noroeste 30 Noroeste 0 -- -- 59
2019-05-21 04:00:00 14.8 20 Norte 32 Norte 0 -- -- 56
2019-05-21 03:00:00 15 24 Norte 34 Norte 0 -- -- 55
2019-05-21 02:00:00 15.9 24 Noroeste 39 Noroeste 0 -- -- 51
2019-05-21 01:00:00 17.1 24 Noroeste 36 Noroeste 0 -- -- 48
2019-05-21 00:00:00 17.8 23 Noroeste 36 Noroeste 0 -- -- 42